Canton, NY (13617)

10:52 AM EDT on September 23, 2014 (GMT -0400)
Sykes Road Canton,NY | Change Station
CLOSE
Current Station
Personal Weather Station
Location: Canton, NY
Elevation: 364 ft
Nearby Weather Stations

Elev 364 ft 44.62 °N, 75.19 °W | Updated 44 seconds ago

Overcast
Overcast
51.8 °F
Feels Like 51.8 °F
N
1.3
Wind Variable Wind from SW
Gusts 2.7 mph

Today
High -- | Low -- °F
--% Chance of Precip.
Yesterday
High -- | Low -- °F
Precip. -- in
6:48 AM 6:56 PM
Waning Crescent, 0% visible
Pressure 30.25 in
Visibility 10.0 miles
Clouds Mostly Cloudy 3200 ft
Overcast 5000 ft
Dew Point 48 °F
Humidity 88%
Rainfall 0.00 in
Snow Depth Not available.
UV 1 out of 12
Pollen 2.40 out of 12
Air Quality Not available.
Flu Activity Not available.
METAR KMSS 231353Z AUTO 22008KT 10SM BKN032 OVC050 11/09 A3024 RMK AO2 SLP244 T01110089

More Conditions Fewer Conditions

Pressure 30.25 in
Visibility 10.0 miles
Clouds Mostly Cloudy 3200 ft
Overcast 5000 ft
Dew Point 48 °F
Humidity 88%
Rainfall 0.00 in
Snow Depth Not available.
UV 1 out of 12
Pollen 2.40 out of 12
Air Quality Not available.
Flu Activity Not available.
METAR KMSS 231353Z AUTO 22008KT 10SM BKN032 OVC050 11/09 A3024 RMK AO2 SLP244 T01110089

More Conditions Fewer Conditions

10-Day Weather Forecast

Almanac

Astronomy

Sep. 23, 2014 Rise Set
Actual Time 6:48 AM EDT 6:56 PM EDT
Civil Twilight 6:19 AM EDT 7:25 PM EDT
Nautical Twilight 5:45 AM EDT 7:59 PM EDT
Astronomical Twilight 5:10 AM EDT 8:34 PM EDT
Moon 6:10 AM EDT 6:33 PM EDT
Length of Visible Light 13h 05m
Length of Day
12h 07m
Tomorrow will be 3m 4s shorter.
Waning Crescent, 0% of the Moon is Illuminated
Today
Waning Crescent
Sep 24
New
Oct 1
First Quarter
Oct 8
Full
Oct 15
Last Quarter

Today's Extremes

State Highs State Lows

Community

WunderPhotos

Upload Photos

1,755,711 photos uploaded!

Nearby

Air Quality

  Air Quality AQ Index Pollutant
Tuesday Good
OZONE
Tuesday Good
PM2.5

Snow Depth

Station Depth Elevation
No new snow has been reported.

Earthquake Activity

City Distance Mag. Time & Date
No recent earthquake activity has been reported nearby.
Minimum magnitude displayed is 2.5.

Coastal Water Temperatures

Place Temperature
Ogdensburg, NY 64.9 °F
Alexandria Bay, NY 64.0 °F

Nearby Weather Stations